createdAt,value
2019-04-10T00:00:09.244Z,100098.55
2019-04-10T00:03:25.605Z,100099.88
2019-04-10T00:06:18.637Z,100102.78
2019-04-10T00:09:23.173Z,100104.11
2019-04-10T00:12:26.694Z,100107.75
2019-04-10T00:15:30.681Z,100101.58
2019-04-10T00:18:34.141Z,100103.16
2019-04-10T00:21:37.719Z,100103.38
2019-04-10T00:24:42.257Z,100100.37
2019-04-10T00:27:45.753Z,100098.56
2019-04-10T00:30:51.357Z,100100.02
2019-04-10T00:33:56.937Z,100086.72
2019-04-10T00:37:01.672Z,100090.70
2019-04-10T00:40:06.804Z,100093.96
2019-04-10T00:43:10.723Z,100089.23
2019-04-10T00:46:14.345Z,100096.15
2019-04-10T00:49:17.843Z,100090.92
2019-04-10T00:52:22.362Z,100084.39
2019-04-10T00:55:28.658Z,100075.55
2019-04-10T00:58:32.226Z,100081.13
2019-04-10T01:01:36.127Z,100075.94
2019-04-10T01:04:42.558Z,100084.03
2019-04-10T01:07:47.058Z,100084.52
2019-04-10T01:10:50.751Z,100078.21
2019-04-10T01:13:54.249Z,100075.20
2019-04-10T01:16:57.881Z,100076.88
2019-04-10T01:20:01.443Z,100073.52
2019-04-10T01:23:05.840Z,100076.18
2019-04-10T01:26:10.509Z,100071.84
2019-04-10T01:29:14.197Z,100070.38
2019-04-10T01:32:17.701Z,100069.42
2019-04-10T01:35:22.483Z,100063.13
2019-04-10T01:38:27.198Z,100058.05
2019-04-10T01:41:32.711Z,100058.78
2019-04-10T01:44:36.429Z,100056.37
2019-04-10T01:47:40.132Z,100054.06
2019-04-10T01:50:46.489Z,100050.06
2019-04-10T01:53:51.030Z,100055.04
2019-04-10T01:56:55.589Z,100049.61
2019-04-10T01:59:59.247Z,100050.82
2019-04-10T02:03:03.483Z,100051.30
2019-04-10T02:06:07.307Z,100052.27
2019-04-10T02:09:11.052Z,100050.56
2019-04-10T02:12:14.610Z,100047.66
2019-04-10T02:15:18.173Z,100048.03
2019-04-10T02:18:21.695Z,100052.16
2019-04-10T02:21:25.529Z,100048.28
2019-04-10T02:24:30.125Z,100054.94
2019-04-10T02:27:34.346Z,100054.94
2019-04-10T02:30:39.606Z,100057.84
2019-04-10T02:33:43.297Z,100051.54
2019-04-10T02:36:48.810Z,100052.87
2019-04-10T02:39:57.833Z,100052.52
2019-04-10T02:42:59.124Z,100054.20
2019-04-10T02:46:04.099Z,100048.14
2019-04-10T02:49:08.303Z,100042.83
2019-04-10T02:52:12.938Z,100045.77
2019-04-10T02:55:18.536Z,100041.14
2019-04-10T02:58:24.642Z,100038.48
2019-04-10T03:01:28.311Z,100038.73
2019-04-10T03:04:33.044Z,100044.78
2019-04-10T03:07:36.751Z,100042.25
2019-04-10T03:10:47.827Z,100047.56
2019-04-10T03:13:47.172Z,100046.36
2019-04-10T03:16:51.464Z,100041.39
2019-04-10T03:19:56.074Z,100044.55
2019-04-10T03:23:00.891Z,100039.36
2019-04-10T03:26:05.637Z,100040.69
2019-04-10T03:29:10.058Z,100045.03
2019-04-10T03:32:36.274Z,100047.93
2019-04-10T03:35:41.099Z,100043.94
2019-04-10T03:38:55.455Z,100043.59
2019-04-10T03:41:50.710Z,100037.92
2019-04-10T03:44:54.869Z,100036.47
2019-04-10T03:47:59.992Z,100037.92
2019-04-10T03:51:03.951Z,100037.53
2019-04-10T03:54:07.575Z,100044.19
2019-04-10T03:57:12.083Z,100049.16
2019-04-10T04:00:16.193Z,100048.30
2019-04-10T04:03:20.422Z,100047.47
2019-04-10T04:06:23.918Z,100047.72
2019-04-10T04:09:27.551Z,100054.36
2019-04-10T04:12:32.823Z,100059.80
2019-04-10T04:15:36.366Z,100059.69
2019-04-10T04:18:39.863Z,100060.05
2019-04-10T04:21:43.941Z,100060.27
2019-04-10T04:24:48.202Z,100064.65
2019-04-10T04:27:51.887Z,100064.65
2019-04-10T04:30:55.322Z,100069.97
2019-04-10T04:33:59.771Z,100066.69
2019-04-10T04:37:04.399Z,100064.50
2019-04-10T04:40:09.059Z,100070.68
2019-04-10T04:43:12.594Z,100068.38
2019-04-10T04:46:16.223Z,100067.55
2019-04-10T04:49:20.694Z,100076.12
2019-04-10T04:52:24.331Z,100072.38
2019-04-10T04:55:28.933Z,100075.03
2019-04-10T04:58:32.551Z,100081.33
2019-04-10T05:01:38.300Z,100080.47
2019-04-10T05:04:42.061Z,100087.38
2019-04-10T05:07:54.774Z,100084.34
2019-04-10T05:10:50.852Z,100091.72
2019-04-10T05:13:55.849Z,100087.97
2019-04-10T05:16:59.579Z,100096.92
2019-04-10T05:20:03.040Z,100098.37
2019-04-10T05:23:06.541Z,100103.06
2019-04-10T05:26:10.242Z,100102.00
2019-04-10T05:29:13.903Z,100098.95
2019-04-10T05:32:17.856Z,100104.90
2019-04-10T05:35:21.551Z,100108.89
2019-04-10T05:38:25.040Z,100106.23
2019-04-10T05:41:29.370Z,100107.91
2019-04-10T05:44:33.934Z,100106.23
2019-04-10T05:47:38.688Z,100104.39
2019-04-10T05:50:53.150Z,100105.25
2019-04-10T05:53:49.896Z,100103.06
2019-04-10T05:56:53.017Z,100109.24
2019-04-10T05:59:56.510Z,100111.55
2019-04-10T06:03:00.479Z,100108.50
2019-04-10T06:06:06.995Z,100109.48
2019-04-10T06:09:12.947Z,100108.50
2019-04-10T06:12:16.435Z,100109.48
2019-04-10T06:15:21.140Z,100108.03
2019-04-10T06:18:24.666Z,100109.83
2019-04-10T06:21:28.783Z,100103.57
2019-04-10T06:24:33.323Z,100106.23
2019-04-10T06:27:36.825Z,100106.23
2019-04-10T06:30:40.326Z,100103.69
2019-04-10T06:33:44.392Z,100108.50
2019-04-10T06:36:49.328Z,100103.81
2019-04-10T06:40:05.053Z,100103.69
2019-04-10T06:42:59.375Z,100101.86
2019-04-10T06:46:02.943Z,100108.27
2019-04-10T06:49:07.806Z,100108.15
2019-04-10T06:52:11.782Z,100106.82
2019-04-10T06:55:15.428Z,100111.78
2019-04-10T06:58:20.133Z,100108.63
2019-04-10T07:01:26.151Z,100109.13
2019-04-10T07:04:41.436Z,100112.14
2019-04-10T07:07:45.470Z,100107.06
2019-04-10T07:10:49.755Z,100118.19
2019-04-10T07:13:47.552Z,100117.56
2019-04-10T07:16:51.068Z,100125.81
2019-04-10T07:19:55.605Z,100124.48
2019-04-10T07:23:00.310Z,100122.88
2019-04-10T07:26:04.294Z,100124.59
2019-04-10T07:29:08.813Z,100122.64
2019-04-10T07:32:13.379Z,100129.55
2019-04-10T07:35:21.475Z,100129.55
2019-04-10T07:38:24.585Z,100135.45
2019-04-10T07:41:29.262Z,100128.21
2019-04-10T07:44:32.815Z,100127.59
2019-04-10T07:47:36.329Z,100133.26
2019-04-10T07:50:39.822Z,100135.44
2019-04-10T07:53:43.597Z,100134.47
2019-04-10T07:56:47.337Z,100136.89
2019-04-10T07:59:50.929Z,100143.06
2019-04-10T08:02:55.349Z,100139.81
2019-04-10T08:06:00.380Z,100147.52
2019-04-10T08:09:05.557Z,100150.56
2019-04-10T08:12:09.298Z,100155.37
2019-04-10T08:15:13.961Z,100152.59
2019-04-10T08:18:17.472Z,100150.67
2019-04-10T08:21:21.845Z,100152.35
2019-04-10T08:24:25.904Z,100153.09
2019-04-10T08:27:29.953Z,100152.11
2019-04-10T08:30:34.204Z,100155.75
2019-04-10T08:33:38.630Z,100153.91
2019-04-10T08:36:42.379Z,100154.77
2019-04-10T08:39:48.922Z,100156.48
2019-04-10T08:42:51.380Z,100157.34
2019-04-10T08:45:55.080Z,100159.03
2019-04-10T08:48:58.496Z,100160.86
2019-04-10T08:52:03.952Z,100162.77
2019-04-10T08:55:08.588Z,100156.59
2019-04-10T08:58:12.198Z,100159.26
2019-04-10T09:01:17.423Z,100160.73
2019-04-10T09:04:21.186Z,100159.40
2019-04-10T09:07:24.796Z,100167.85
2019-04-10T09:10:28.307Z,100166.64
2019-04-10T09:13:32.671Z,100159.40
2019-04-10T09:16:39.588Z,100157.09
2019-04-10T09:19:43.043Z,100164.09
2019-04-10T09:23:10.333Z,100160.10
2019-04-10T09:25:53.820Z,100155.98
2019-04-10T09:28:59.611Z,100171.36
2019-04-10T09:32:04.367Z,100160.20
2019-04-10T09:35:08.794Z,100161.92
2019-04-10T09:38:14.704Z,100162.27
2019-04-10T09:41:19.287Z,100155.97
2019-04-10T09:44:33.297Z,100147.98
2019-04-10T09:47:36.941Z,100149.08
2019-04-10T09:50:41.560Z,100144.38
2019-04-10T09:53:45.495Z,100145.44
2019-04-10T09:56:49.284Z,100137.45
2019-04-10T09:59:52.767Z,100148.48
2019-04-10T10:02:57.298Z,100142.53
2019-04-10T10:06:03.601Z,100141.58
2019-04-10T10:09:08.381Z,100137.58
2019-04-10T10:12:12.071Z,100140.25
2019-04-10T10:15:16.765Z,100149.56
2019-04-10T10:18:21.387Z,100144.59
2019-04-10T10:21:26.080Z,100142.63
2019-04-10T10:24:30.808Z,100138.28
2019-04-10T10:27:35.689Z,100144.70
2019-04-10T10:30:39.747Z,100146.50
2019-04-10T10:33:43.330Z,100142.03
2019-04-10T10:36:50.554Z,100142.77
2019-04-10T10:39:52.983Z,100140.11
2019-04-10T10:42:56.479Z,100137.80
2019-04-10T10:46:00.945Z,100138.53
2019-04-10T10:49:04.522Z,100136.22
2019-04-10T10:52:09.056Z,100138.25
2019-04-10T10:55:13.587Z,100138.98
2019-04-10T10:58:18.251Z,100144.41
2019-04-10T11:01:22.133Z,100144.28
2019-04-10T11:04:25.505Z,100140.16
2019-04-10T11:07:29.014Z,100126.38
2019-04-10T11:10:33.729Z,100135.44
2019-04-10T11:13:37.268Z,100134.81
2019-04-10T11:16:41.111Z,100135.89
2019-04-10T11:19:45.585Z,100130.44
2019-04-10T11:22:50.244Z,100136.12
2019-04-10T11:25:55.193Z,100121.81
2019-04-10T11:28:59.146Z,100135.87
2019-04-10T11:32:04.128Z,100129.94
2019-04-10T11:35:08.923Z,100127.97
2019-04-10T11:38:13.387Z,100120.23
2019-04-10T11:41:18.974Z,100126.42
2019-04-10T11:44:22.507Z,100135.75
2019-04-10T11:47:29.171Z,100129.56
2019-04-10T11:50:34.586Z,100132.70
2019-04-10T11:53:42.342Z,100129.41
2019-04-10T11:56:48.251Z,100129.28
2019-04-10T11:59:49.621Z,100137.66
2019-04-10T12:02:56.584Z,100127.56
2019-04-10T12:05:59.817Z,100131.78
2019-04-10T12:09:45.040Z,100129.84
2019-04-10T12:12:14.347Z,100144.03
2019-04-10T12:15:18.544Z,100143.52
2019-04-10T12:18:22.570Z,100142.56
2019-04-10T12:21:26.307Z,100135.91
2019-04-10T12:24:30.058Z,100135.66
2019-04-10T12:27:33.635Z,100140.59
2019-04-10T12:30:37.425Z,100141.70
2019-04-10T12:33:41.032Z,100144.09
2019-04-10T12:36:46.862Z,100146.97
2019-04-10T12:39:50.501Z,100151.79
2019-04-10T12:42:55.090Z,100145.98
2019-04-10T12:45:58.524Z,100147.66
2019-04-10T12:49:03.553Z,100146.42
2019-04-10T12:52:08.026Z,100148.10
2019-04-10T12:55:12.300Z,100147.16
2019-04-10T12:58:17.737Z,100149.05
2019-04-10T13:01:21.147Z,100145.05
2019-04-10T13:04:24.760Z,100152.31
2019-04-10T13:07:29.492Z,100149.73
2019-04-10T13:10:33.625Z,100151.77
2019-04-10T13:13:38.009Z,100146.17
2019-04-10T13:16:42.728Z,100145.47
2019-04-10T13:19:46.253Z,100149.69
2019-04-10T13:22:50.677Z,100149.43
2019-04-10T13:25:58.359Z,100150.28
2019-04-10T13:29:00.658Z,100148.44
2019-04-10T13:32:05.547Z,100146.50
2019-04-10T13:35:10.236Z,100136.53
2019-04-10T13:38:24.861Z,100140.91
2019-04-10T13:41:20.742Z,100148.53
2019-04-10T13:44:24.495Z,100142.80
2019-04-10T13:47:29.115Z,100148.48
2019-04-10T13:50:33.254Z,100140.09
2019-04-10T13:53:37.704Z,100141.80
2019-04-10T13:56:41.647Z,100144.73
2019-04-10T13:59:45.565Z,100140.95
2019-04-10T14:02:50.020Z,100144.17
2019-04-10T14:05:54.797Z,100155.56
2019-04-10T14:09:19.390Z,100149.63
2019-04-10T14:12:04.321Z,100140.98
2019-04-10T14:15:07.867Z,100157.71
2019-04-10T14:18:12.316Z,100151.38
2019-04-10T14:21:17.287Z,100151.73
2019-04-10T14:24:21.983Z,100155.39
2019-04-10T14:27:27.942Z,100161.70
2019-04-10T14:30:35.636Z,100155.73
2019-04-10T14:33:39.982Z,100160.54
2019-04-10T14:36:44.317Z,100153.26
2019-04-10T14:39:47.954Z,100161.61
2019-04-10T14:42:51.515Z,100151.28
2019-04-10T14:45:55.108Z,100149.34
2019-04-10T14:48:58.631Z,100150.33
2019-04-10T14:52:03.206Z,100152.00
2019-04-10T14:55:08.681Z,100149.08
2019-04-10T14:58:20.895Z,100157.08
2019-04-10T15:01:17.771Z,100160.09
2019-04-10T15:04:22.263Z,100152.83
2019-04-10T15:07:27.458Z,100167.30
2019-04-10T15:10:31.093Z,100164.62
2019-04-10T15:13:36.165Z,100157.34
2019-04-10T15:16:42.091Z,100162.68
2019-04-10T15:19:49.514Z,100165.69
2019-04-10T15:22:52.702Z,100165.34
2019-04-10T15:25:56.205Z,100165.00
2019-04-10T15:29:00.766Z,100165.27
2019-04-10T15:32:04.404Z,100174.61
2019-04-10T15:35:08.385Z,100161.95
2019-04-10T15:38:12.047Z,100168.28
2019-04-10T15:41:16.942Z,100174.34
2019-04-10T15:44:21.769Z,100173.62
2019-04-10T15:47:25.408Z,100178.61
2019-04-10T15:50:28.977Z,100175.08
2019-04-10T15:53:32.418Z,100181.27
2019-04-10T15:56:36.178Z,100179.94
2019-04-10T15:59:40.764Z,100182.61
2019-04-10T16:02:44.794Z,100182.95
2019-04-10T16:05:50.177Z,100186.34
2019-04-10T16:08:53.823Z,100181.84
2019-04-10T16:12:02.702Z,100183.81
2019-04-10T16:15:06.475Z,100189.63
2019-04-10T16:18:13.743Z,100191.09
2019-04-10T16:21:18.113Z,100196.91
2019-04-10T16:24:22.877Z,100193.55
2019-04-10T16:27:26.505Z,100188.91
2019-04-10T16:30:31.281Z,100190.96
2019-04-10T16:33:35.735Z,100190.61
2019-04-10T16:36:39.508Z,100196.43
2019-04-10T16:39:42.970Z,100196.91
2019-04-10T16:42:46.798Z,100209.29
2019-04-10T16:45:51.002Z,100202.24
2019-04-10T16:48:54.509Z,100207.45
2019-04-10T16:51:58.746Z,100206.97
2019-04-10T16:55:02.899Z,100201.63
2019-04-10T16:58:07.574Z,100207.45
2019-04-10T17:01:12.579Z,100210.12
2019-04-10T17:04:16.789Z,100207.95
2019-04-10T17:07:21.075Z,100211.23
2019-04-10T17:10:27.680Z,100220.58
2019-04-10T17:13:31.537Z,100218.25
2019-04-10T17:16:35.030Z,100219.84
2019-04-10T17:19:48.902Z,100221.91
2019-04-10T17:22:47.209Z,100228.23
2019-04-10T17:25:49.223Z,100230.39
2019-04-10T17:28:52.713Z,100234.52
2019-04-10T17:31:57.116Z,100241.19
2019-04-10T17:35:00.994Z,100240.84
2019-04-10T17:38:04.749Z,100246.82
2019-04-10T17:41:09.163Z,100251.08
2019-04-10T17:44:13.732Z,100256.77
2019-04-10T17:47:17.609Z,100255.69
2019-04-10T17:50:22.509Z,100264.67
2019-04-10T17:53:26.151Z,100270.70
2019-04-10T17:56:30.454Z,100277.89
2019-04-10T17:59:34.301Z,100289.38
2019-04-10T18:02:38.929Z,100285.76
2019-04-10T18:05:42.705Z,100282.71
2019-04-10T18:08:47.190Z,100295.00
2019-04-10T18:11:50.775Z,100303.48
2019-04-10T18:14:55.449Z,100303.96
2019-04-10T18:17:59.720Z,100306.16
2019-04-10T18:21:04.473Z,100315.97
2019-04-10T18:24:08.219Z,100320.95
2019-04-10T18:27:12.264Z,100326.54
2019-04-10T18:30:16.215Z,100337.21
2019-04-10T18:33:20.406Z,100340.61
2019-04-10T18:36:24.335Z,100344.23
2019-04-10T18:39:28.014Z,100343.53
2019-04-10T18:42:31.481Z,100346.20
2019-04-10T18:45:35.588Z,100353.22
2019-04-10T18:48:39.313Z,100359.02
2019-04-10T18:51:42.809Z,100361.22
2019-04-10T18:54:46.264Z,100370.68
2019-04-10T18:57:51.426Z,100371.19
2019-04-10T19:01:20.981Z,100379.19
2019-04-10T19:04:47.591Z,100381.47
2019-04-10T19:07:51.340Z,100379.44
2019-04-10T19:11:09.428Z,100384.04
2019-04-10T19:14:01.388Z,100396.66
2019-04-10T19:17:07.177Z,100398.94
2019-04-10T19:20:11.116Z,100401.38
2019-04-10T19:23:15.062Z,100406.47
2019-04-10T19:26:23.065Z,100409.03
2019-04-10T19:29:27.587Z,100414.36
2019-04-10T19:32:35.286Z,100414.36
2019-04-10T19:35:39.251Z,100415.34
2019-04-10T19:38:43.326Z,100415.34
2019-04-10T19:41:47.017Z,100419.34
2019-04-10T19:44:51.006Z,100418.96
2019-04-10T19:47:54.768Z,100419.21
2019-04-10T19:50:59.571Z,100417.28
2019-04-10T19:54:05.685Z,100415.34
2019-04-10T19:57:09.000Z,100419.95
2019-04-10T20:00:12.649Z,100427.46
2019-04-10T20:03:16.026Z,100426.02
2019-04-10T20:06:21.349Z,100425.32
2019-04-10T20:09:24.904Z,100422.52
2019-04-10T20:12:28.727Z,100432.44
2019-04-10T20:15:32.344Z,100436.09
2019-04-10T20:18:36.712Z,100439.35
2019-04-10T20:21:40.547Z,100450.14
2019-04-10T20:24:44.941Z,100450.27
2019-04-10T20:27:50.101Z,100458.03
2019-04-10T20:30:56.180Z,100456.81
2019-04-10T20:33:59.192Z,100453.41
2019-04-10T20:37:07.638Z,100462.39
2019-04-10T20:40:08.101Z,100467.37
2019-04-10T20:43:11.611Z,100467.97
2019-04-10T20:46:15.113Z,100467.26
2019-04-10T20:49:18.607Z,100475.85
2019-04-10T20:52:22.156Z,100476.83
2019-04-10T20:55:25.849Z,100483.27
2019-04-10T20:58:29.503Z,100482.05
2019-04-10T21:01:35.087Z,100481.30
2019-04-10T21:04:39.609Z,100480.60
2019-04-10T21:07:44.119Z,100478.88
2019-04-10T21:10:47.612Z,100482.17
2019-04-10T21:13:51.108Z,100488.09
2019-04-10T21:16:56.135Z,100493.89
2019-04-10T21:20:00.115Z,100488.33
2019-04-10T21:23:03.614Z,100493.31
2019-04-10T21:26:08.142Z,100491.23
2019-04-10T21:29:16.373Z,100489.19
2019-04-10T21:32:55.791Z,100487.74
2019-04-10T21:35:59.765Z,100484.58
2019-04-10T21:39:05.250Z,100495.86
2019-04-10T21:42:16.786Z,100497.30
2019-04-10T21:45:14.052Z,100496.09
2019-04-10T21:48:17.532Z,100500.20
2019-04-10T21:51:21.188Z,100498.52
2019-04-10T21:54:26.881Z,100505.65
2019-04-10T21:57:30.722Z,100496.80
2019-04-10T22:01:01.368Z,100498.75
2019-04-10T22:04:06.420Z,100499.70
2019-04-10T22:07:23.811Z,100504.67
2019-04-10T22:10:32.234Z,100512.86
2019-04-10T22:13:35.856Z,100511.17
2019-04-10T22:16:39.331Z,100509.09
2019-04-10T22:19:43.137Z,100518.81
2019-04-10T22:22:47.072Z,100508.39
2019-04-10T22:25:52.141Z,100514.19
2019-04-10T22:28:56.904Z,100516.97
2019-04-10T22:32:00.503Z,100508.98
2019-04-10T22:35:05.143Z,100517.95
2019-04-10T22:38:09.010Z,100522.05
2019-04-10T22:41:23.755Z,100525.81
2019-04-10T22:44:17.896Z,100532.58
2019-04-10T22:47:21.604Z,100534.03
2019-04-10T22:50:25.102Z,100534.50
2019-04-10T22:53:28.938Z,100537.78
2019-04-10T22:56:33.592Z,100543.11
2019-04-10T22:59:38.251Z,100550.23
2019-04-10T23:02:42.207Z,100545.89
2019-04-10T23:05:46.847Z,100550.47
2019-04-10T23:08:51.602Z,100552.77
2019-04-10T23:11:56.496Z,100553.75
2019-04-10T23:15:00.848Z,100548.89
2019-04-10T23:18:05.487Z,100551.20
2019-04-10T23:21:09.214Z,100551.78
2019-04-10T23:24:13.613Z,100561.10
2019-04-10T23:27:17.698Z,100553.84
2019-04-10T23:30:21.543Z,100558.67
2019-04-10T23:33:26.038Z,100560.50
2019-04-10T23:36:31.882Z,100565.83
2019-04-10T23:39:36.493Z,100570.77
2019-04-10T23:42:41.282Z,100566.41
2019-04-10T23:45:44.749Z,100565.19
2019-04-10T23:48:49.903Z,100569.66
2019-04-10T23:51:53.697Z,100567.61
2019-04-10T23:54:57.596Z,100565.89
2019-04-10T23:58:02.137Z,100568.55
